Time;durP1;ratioP1;P1;durP2;ratioP2;P2;SDS_P1;SDS_P2;PMS_P1;PMS_P2;Temp;Humidity;BMP_temperature;BMP_pressure;BME280_temperature;BME280_humidity;BME280_pressure;Samples;Min_cycle;Max_cycle;Signal;HPM_P1;HPM_P2
2021/11/27 00:00:14;;;;;;;52.07;30.63;;;;;;;4.36;67.18;98033.03;4917413;28;96845;-76
2021/11/27 00:02:40;;;;;;;51.20;30.80;;;;;;;4.32;67.00;98029.75;4934583;28;96536;-76
2021/11/27 00:05:07;;;;;;;53.37;32.23;;;;;;;4.28;67.33;98023.00;4934023;28;97589;-76
2021/11/27 00:07:33;;;;;;;55.30;31.53;;;;;;;4.27;67.25;98035.13;4950574;28;97448;-74
2021/11/27 00:09:59;;;;;;;52.13;30.63;;;;;;;4.30;67.59;98044.53;4950621;28;96668;-76
2021/11/27 00:12:24;;;;;;;51.57;32.20;;;;;;;4.26;67.58;98027.41;4934387;28;96787;-76
2021/11/27 00:14:50;;;;;;;55.13;31.57;;;;;;;4.25;67.56;98029.19;4933622;28;97707;-77
2021/11/27 00:17:16;;;;;;;54.30;33.20;;;;;;;4.25;67.42;98024.00;4934960;28;97625;-76
2021/11/27 00:19:41;;;;;;;56.33;31.17;;;;;;;4.22;67.47;98021.53;4934245;28;96558;-76
2021/11/27 00:22:07;;;;;;;51.50;30.07;;;;;;;4.23;67.47;98024.97;4950132;28;96838;-76
2021/11/27 00:24:32;;;;;;;52.23;30.00;;;;;;;4.24;67.20;98024.88;4949851;28;100885;-76
2021/11/27 00:26:58;;;;;;;52.13;28.27;;;;;;;4.24;67.57;98024.88;4933517;28;97108;-76
2021/11/27 00:29:24;;;;;;;48.97;29.93;;;;;;;4.19;67.67;98016.47;4935441;28;96392;-76
2021/11/27 00:31:50;;;;;;;50.57;30.03;;;;;;;4.24;67.47;98024.88;4934388;28;96705;-76
2021/11/27 00:34:15;;;;;;;57.03;30.87;;;;;;;4.16;67.99;98011.41;4933750;28;97661;-76
2021/11/27 00:36:42;;;;;;;48.50;29.17;;;;;;;4.17;67.55;98007.06;4917495;28;100043;-76
2021/11/27 00:39:08;;;;;;;51.50;28.77;;;;;;;4.17;67.55;98004.47;4949282;28;96517;-77
2021/11/27 00:41:35;;;;;;;51.47;30.70;;;;;;;4.18;67.68;98001.78;4917631;28;96889;-76
2021/11/27 00:44:01;;;;;;;54.20;28.77;;;;;;;4.18;67.71;98008.72;4949566;28;97478;-76
2021/11/27 00:46:27;;;;;;;51.43;29.57;;;;;;;4.16;67.71;97997.56;4917178;28;100375;-76
2021/11/27 00:48:53;;;;;;;61.10;34.10;;;;;;;4.18;67.70;98006.13;4949822;28;96742;-76
2021/11/27 00:51:25;;;;;;;63.93;35.17;;;;;;;4.16;68.00;98007.94;4950131;28;96812;-75
2021/11/27 00:53:51;;;;;;;68.93;36.50;;;;;;;4.18;67.88;98009.56;4949605;28;100617;-76
2021/11/27 00:56:18;;;;;;;58.90;33.33;;;;;;;4.23;67.76;98006.78;4950124;28;97081;-76
2021/11/27 00:58:44;;;;;;;53.03;32.07;;;;;;;4.23;67.81;98010.22;4933594;28;96617;-76
2021/11/27 01:01:15;;;;;;;51.90;29.70;;;;;;;4.23;67.68;98012.81;4933327;28;96810;-76
2021/11/27 01:03:43;;;;;;;57.57;32.37;;;;;;;4.26;68.07;98019.63;4932830;28;97314;-76
2021/11/27 01:06:10;;;;;;;57.70;31.97;;;;;;;4.25;67.83;98012.75;4933180;28;100007;-77
2021/11/27 01:08:38;;;;;;;52.37;31.93;;;;;;;4.21;68.26;98008.59;4933422;28;96419;-77
2021/11/27 01:11:18;;;;;;;54.23;31.67;;;;;;;4.24;68.22;98016.25;4933715;28;96858;-76
2021/11/27 01:13:45;;;;;;;59.23;34.50;;;;;;;4.23;68.06;98018.00;4933759;28;97555;-76
2021/11/27 01:16:12;;;;;;;57.40;33.23;;;;;;;4.21;68.22;98008.59;4916879;28;100621;-76
2021/11/27 01:18:38;;;;;;;57.93;34.70;;;;;;;4.23;68.19;98010.22;4949640;28;96475;-77
2021/11/27 01:21:08;;;;;;;76.00;39.60;;;;;;;4.26;67.95;98017.88;4950067;28;96819;-76
2021/11/27 01:23:34;;;;;;;80.63;39.93;;;;;;;4.25;67.99;98017.97;4935660;28;97981;-76
2021/11/27 01:26:00;;;;;;;64.53;35.90;;;;;;;4.25;68.04;98013.59;4952817;28;97540;-77
2021/11/27 01:28:25;;;;;;;59.20;33.13;;;;;;;4.24;67.61;98017.09;4920081;28;96445;-77
2021/11/27 01:30:54;;;;;;;54.43;32.03;;;;;;;4.25;68.18;98016.19;4904680;28;96888;-77
2021/11/27 01:33:20;;;;;;;53.87;31.07;;;;;;;4.24;68.31;98019.69;4952370;28;100245;-77
2021/11/27 01:35:46;;;;;;;52.90;31.73;;;;;;;4.26;68.14;98010.06;4936522;28;97136;-76
2021/11/27 01:38:12;;;;;;;56.20;31.53;;;;;;;4.23;68.17;98004.19;4936690;28;96561;-77
2021/11/27 01:40:39;;;;;;;50.10;29.97;;;;;;;4.29;67.93;98009.09;4936708;28;96871;-77
2021/11/27 01:43:05;;;;;;;53.27;29.30;;;;;;;4.27;68.11;98005.72;4920306;28;100650;-76
2021/11/27 01:45:31;;;;;;;58.60;32.77;;;;;;;4.23;68.46;98001.59;4920375;28;100449;-77
2021/11/27 01:48:00;;;;;;;54.27;31.40;;;;;;;4.25;68.46;98002.38;4953087;28;96367;-77
2021/11/27 01:50:28;;;;;;;50.33;30.13;;;;;;;4.25;68.20;98004.97;4952847;28;96794;-77
2021/11/27 01:52:54;;;;;;;52.17;30.33;;;;;;;4.23;68.39;97999.00;4935636;28;100596;-77
2021/11/27 01:55:19;;;;;;;54.67;31.43;;;;;;;4.24;68.58;98003.25;4952475;28;97657;-76
2021/11/27 01:57:46;;;;;;;53.77;31.20;;;;;;;4.24;68.29;97996.31;4936308;28;96523;-76
2021/11/27 02:00:16;;;;;;;53.50;30.27;;;;;;;4.25;68.44;98000.63;4935791;28;96758;-76
2021/11/27 02:02:45;;;;;;;52.77;31.33;;;;;;;4.27;68.39;98009.16;4933366;28;97206;-76
2021/11/27 02:05:11;;;;;;;54.40;32.30;;;;;;;4.29;68.79;98009.09;4919742;28;100393;-76
2021/11/27 02:07:37;;;;;;;53.17;30.60;;;;;;;4.30;68.49;98003.84;4920127;28;96518;-76
2021/11/27 02:10:05;;;;;;;49.20;30.10;;;;;;;4.31;68.59;97999.50;4936600;28;96733;-77
2021/11/27 02:12:31;;;;;;;51.70;30.57;;;;;;;4.34;68.61;98008.91;4935993;28;97618;-77
2021/11/27 02:14:57;;;;;;;56.23;29.40;;;;;;;4.32;68.47;97999.41;4903646;28;99577;-76
2021/11/27 02:17:23;;;;;;;48.50;28.07;;;;;;;4.31;68.53;97995.13;4935431;28;96538;-77
2021/11/27 02:19:52;;;;;;;52.77;29.70;;;;;;;4.29;68.16;97996.13;4951713;28;96339;-76
2021/11/27 02:22:18;;;;;;;46.73;27.63;;;;;;;4.32;68.27;97996.81;4919503;28;99422;-76
2021/11/27 02:24:47;;;;;;;46.13;28.53;;;;;;;4.35;68.21;97995.00;4919771;28;100597;-76
2021/11/27 02:27:14;;;;;;;44.90;27.47;;;;;;;4.29;68.56;97985.72;4919503;28;96623;-75
2021/11/27 02:29:41;;;;;;;48.70;29.40;;;;;;;4.27;68.19;97988.38;4935756;28;96752;-76
2021/11/27 02:32:07;;;;;;;50.47;29.17;;;;;;;4.28;68.45;97994.44;4951640;28;100145;-76
2021/11/27 02:34:34;;;;;;;43.50;28.53;;;;;;;4.27;68.40;97990.97;4918972;28;100198;-76
2021/11/27 02:37:04;;;;;;;54.57;30.53;;;;;;;4.41;67.57;97992.13;4951876;28;96543;-75
2021/11/27 02:39:34;;;;;;;;;;;;;;;4.18;68.69;97987.97;4951894;28;96829;-76
2021/11/27 02:41:59;;;;;;;53.17;31.03;;;;;;;3.95;69.33;97992.41;4935039;28;97942;-76
2021/11/27 02:44:29;;;;;;;46.83;28.93;;;;;;;3.91;70.12;97984.84;4919251;28;99892;-77
2021/11/27 02:46:55;;;;;;;51.83;28.83;;;;;;;4.00;69.41;97974.06;4919091;28;96548;-77
2021/11/27 02:49:21;;;;;;;49.10;27.67;;;;;;;4.02;69.28;97980.88;4935322;28;96780;-77
2021/11/27 02:51:47;;;;;;;52.17;29.00;;;;;;;4.05;69.50;97988.50;4951726;28;97553;-76
2021/11/27 02:54:14;;;;;;;51.03;29.20;;;;;;;4.09;69.02;97987.47;4935101;28;99967;-76
2021/11/27 02:56:40;;;;;;;47.10;27.17;;;;;;;4.06;69.43;97987.59;4951674;28;96657;-77
2021/11/27 02:59:09;;;;;;;48.33;28.63;;;;;;;4.09;69.35;97990.06;4935937;28;96914;-76
2021/11/27 03:01:36;;;;;;;45.27;27.13;;;;;;;4.08;69.70;97990.13;4951274;28;100340;-76
2021/11/27 03:04:02;;;;;;;48.03;27.50;;;;;;;4.13;69.39;97992.50;4919267;28;99613;-77
2021/11/27 03:06:28;;;;;;;52.43;30.30;;;;;;;4.16;69.05;97989.78;4951071;28;96816;-76
2021/11/27 03:08:54;;;;;;;59.53;32.27;;;;;;;4.12;69.04;97978.69;4951800;28;96708;-76
2021/11/27 03:11:23;;;;;;;52.83;29.53;;;;;;;4.01;69.12;97991.31;4934867;28;100403;-77
2021/11/27 03:13:48;;;;;;;57.40;33.17;;;;;;;4.03;69.11;97985.13;4934964;28;100285;-77
2021/11/27 03:16:15;;;;;;;57.97;32.07;;;;;;;4.00;69.10;97977.50;4935183;28;96724;-76
2021/11/27 03:18:43;;;;;;;51.00;29.20;;;;;;;3.88;69.27;97972.84;4951384;28;96775;-76
2021/11/27 03:21:09;;;;;;;47.63;29.17;;;;;;;3.89;69.54;97978.88;4951162;28;98042;-76
2021/11/27 03:23:35;;;;;;;50.67;28.80;;;;;;;3.96;69.10;97977.72;4935140;28;100598;-76
2021/11/27 03:26:00;;;;;;;50.90;29.73;;;;;;;4.03;69.05;97964.38;4902660;28;96617;-76
2021/11/27 03:28:26;;;;;;;47.70;27.83;;;;;;;4.04;69.24;97966.06;4951387;28;96784;-77
2021/11/27 03:30:52;;;;;;;49.67;28.93;;;;;;;4.06;69.22;97966.00;4934419;28;97889;-76
2021/11/27 03:33:19;;;;;;;48.43;28.63;;;;;;;4.03;69.03;97971.31;4918728;28;98480;-76
2021/11/27 03:35:44;;;;;;;48.13;28.80;;;;;;;3.94;68.93;97964.78;4951362;28;96456;-76
2021/11/27 03:38:11;;;;;;;48.97;28.57;;;;;;;3.85;69.32;97962.59;4918758;28;96867;-76
2021/11/27 03:40:38;;;;;;;49.37;28.80;;;;;;;3.91;69.20;97962.31;4918418;28;100283;-77
2021/11/27 03:43:04;;;;;;;53.30;31.87;;;;;;;3.92;69.36;97963.16;4918332;28;100263;-76
2021/11/27 03:45:30;;;;;;;48.23;27.90;;;;;;;3.82;69.98;97970.53;4918502;28;96637;-76
2021/11/27 03:48:12;;;;;;;44.53;28.23;;;;;;;3.74;69.85;97970.84;4935297;28;96817;-77
2021/11/27 03:51:19;;;;;;;50.93;27.40;;;;;;;3.73;70.10;97989.94;4894433;28;97902;-76
2021/11/27 03:53:46;;;;;;;47.00;26.80;;;;;;;3.83;69.95;97982.59;4894973;28;97383;-76
2021/11/27 03:56:16;;;;;;;45.97;28.40;;;;;;;3.94;69.52;97988.16;4904633;28;96840;-76
2021/11/27 03:58:49;;;;;;;45.40;27.20;;;;;;;3.97;69.28;97982.81;4919231;28;96738;-76
2021/11/27 04:01:17;;;;;;;43.20;25.17;;;;;;;4.00;68.92;97984.44;4933635;28;100421;-77
2021/11/27 04:03:44;;;;;;;47.07;28.03;;;;;;;3.99;69.21;97986.19;4934336;28;97443;-76
2021/11/27 04:06:11;;;;;;;47.50;26.13;;;;;;;4.04;68.98;97984.25;4950434;28;96559;-77
2021/11/27 04:08:37;;;;;;;43.53;26.53;;;;;;;4.13;68.88;97984.72;4934368;28;96735;-76
2021/11/27 04:11:04;;;;;;;44.60;26.17;;;;;;;4.02;69.22;97985.22;4901992;28;99675;-76
2021/11/27 04:13:30;;;;;;;42.47;25.03;;;;;;;3.97;68.92;97989.78;4950410;28;100312;-76
2021/11/27 04:15:56;;;;;;;43.57;25.93;;;;;;;3.96;68.78;97991.53;4934277;28;96452;-76
2021/11/27 04:18:22;;;;;;;46.60;27.50;;;;;;;3.84;69.06;97989.47;4934069;28;96459;-76
2021/11/27 04:20:49;;;;;;;47.50;26.40;;;;;;;3.75;69.27;97985.53;4917536;28;100505;-76
2021/11/27 04:23:15;;;;;;;45.27;27.07;;;;;;;3.58;69.93;97990.59;4917918;28;97646;-77
2021/11/27 04:25:41;;;;;;;46.63;26.10;;;;;;;3.39;70.51;97987.94;4933469;28;96569;-77
2021/11/27 04:28:08;;;;;;;48.43;26.37;;;;;;;3.38;70.69;97981.06;4950590;28;96708;-76
2021/11/27 04:30:35;;;;;;;41.50;25.30;;;;;;;3.35;71.07;97976.00;4949963;28;100378;-77
2021/11/27 04:33:01;;;;;;;38.03;24.40;;;;;;;3.38;71.33;97981.91;4950075;28;100224;-76
2021/11/27 04:35:42;;;;;;;40.20;23.67;;;;;;;3.60;70.81;97984.41;4934051;28;96621;-76
2021/11/27 04:38:14;;;;;;;37.03;23.67;;;;;;;3.66;70.55;97980.72;4918988;28;96704;-76
2021/11/27 04:40:41;;;;;;;37.13;22.90;;;;;;;3.75;70.20;97977.75;4917680;28;98614;-76
2021/11/27 04:43:09;;;;;;;42.07;25.23;;;;;;;3.89;69.71;97982.31;4917963;28;99778;-77
2021/11/27 04:45:35;;;;;;;40.03;23.37;;;;;;;3.90;69.24;97971.03;4933377;28;96463;-76
2021/11/27 04:48:01;;;;;;;40.03;23.50;;;;;;;3.92;69.44;97968.34;4917956;28;96694;-76
2021/11/27 04:50:28;;;;;;;37.33;23.67;;;;;;;3.92;69.29;97973.53;4949532;28;100391;-76
2021/11/27 04:52:53;;;;;;;44.97;25.53;;;;;;;3.87;69.56;97976.38;4933393;28;100373;-76
2021/11/27 04:55:22;;;;;;;40.20;25.10;;;;;;;3.91;69.37;97980.50;4933551;28;96549;-76
2021/11/27 04:58:02;;;;;;;41.47;23.37;;;;;;;3.91;69.32;97985.69;4921019;28;96848;-76
2021/11/27 05:00:35;;;;;;;40.57;24.60;;;;;;;3.88;69.46;97988.41;4920304;28;100819;-77
2021/11/27 05:03:02;;;;;;;39.90;24.27;;;;;;;3.88;69.13;97985.81;4921226;28;100181;-77
2021/11/27 05:05:28;;;;;;;43.60;25.00;;;;;;;3.80;69.66;97990.50;4937043;28;96413;-76
2021/11/27 05:07:55;;;;;;;40.67;24.13;;;;;;;3.76;69.71;97992.41;4953349;28;96769;-76
2021/11/27 05:10:21;;;;;;;40.07;23.83;;;;;;;3.79;69.78;97994.84;4936488;28;97622;-76
2021/11/27 05:12:47;;;;;;;40.70;23.17;;;;;;;3.74;69.96;97990.78;4936830;28;100107;-76
2021/11/27 05:15:13;;;;;;;36.73;22.50;;;;;;;3.77;69.71;97995.81;4938380;28;96454;-76
2021/11/27 05:17:42;;;;;;;38.27;22.60;;;;;;;3.71;70.03;97996.94;4952749;28;96844;-76
2021/11/27 05:20:21;;;;;;;34.47;21.30;;;;;;;3.88;69.53;97993.63;4922238;28;100466;-76
2021/11/27 05:22:47;;;;;;;40.40;23.93;;;;;;;3.86;69.43;97992.81;4953067;28;97710;-76
2021/11/27 05:25:12;;;;;;;36.00;22.40;;;;;;;3.84;69.21;97995.50;4936404;28;96568;-76
2021/11/27 05:27:56;;;;;;;36.43;22.70;;;;;;;4.00;69.05;97997.41;4920996;28;96585;-76
2021/11/27 05:30:33;;;;;;;38.07;22.67;;;;;;;3.75;69.54;98002.81;4951183;28;97938;-76
2021/11/27 05:35:39;;;;;;;35.27;20.83;;;;;;;3.84;70.00;97997.25;4921245;28;96488;-76
2021/11/27 05:38:06;;;;;;;36.80;22.33;;;;;;;3.85;69.48;98002.38;4935978;28;96975;-76
2021/11/27 05:40:34;;;;;;;32.47;20.00;;;;;;;3.91;69.48;98000.44;4952681;28;97210;-76
2021/11/27 05:42:59;;;;;;;37.17;20.63;;;;;;;3.83;69.65;97995.56;4936510;28;97770;-77
2021/11/27 05:45:29;;;;;;;30.83;20.03;;;;;;;3.96;69.40;97999.31;4904386;28;96379;-76
2021/11/27 05:47:59;;;;;;;40.37;20.80;;;;;;;3.98;68.69;97994.03;4936454;28;96829;-76
2021/11/27 05:50:33;;;;;;;41.07;22.17;;;;;;;3.88;69.12;97998.81;4922403;28;98982;-76
2021/11/27 05:52:59;;;;;;;36.63;20.43;;;;;;;3.74;69.89;98006.34;4952931;28;99494;-76
2021/11/27 05:55:25;;;;;;;37.03;21.53;;;;;;;3.71;69.54;98007.31;4952681;28;96413;-77
2021/11/27 05:57:51;;;;;;;28.57;17.17;;;;;;;3.64;69.56;98000.72;4936535;28;96788;-76
2021/11/27 06:00:17;;;;;;;36.10;20.13;;;;;;;3.58;69.90;98001.81;4936612;28;97538;-76
2021/11/27 06:02:43;;;;;;;34.90;19.87;;;;;;;3.40;70.55;97998.25;4936101;28;100186;-76
2021/11/27 06:05:09;;;;;;;36.47;21.03;;;;;;;3.43;70.14;98001.59;4952889;28;96922;-76
2021/11/27 06:07:35;;;;;;;35.03;21.03;;;;;;;3.29;70.72;98004.78;4919928;28;96645;-75
2021/11/27 06:10:02;;;;;;;35.93;22.13;;;;;;;3.31;70.49;98011.56;4936047;28;97684;-76
2021/11/27 06:12:27;;;;;;;35.53;22.53;;;;;;;3.30;70.88;98024.63;4936000;28;97225;-76
2021/11/27 06:14:53;;;;;;;33.57;20.83;;;;;;;3.12;71.17;98014.09;4936305;28;96618;-77
2021/11/27 06:17:18;;;;;;;31.77;19.33;;;;;;;3.07;71.56;98017.78;4920583;28;96719;-75
2021/11/27 06:19:46;;;;;;;30.83;19.10;;;;;;;3.11;71.45;98020.19;4935590;28;100683;-77
2021/11/27 06:22:11;;;;;;;28.77;18.30;;;;;;;3.01;71.36;98025.81;4936119;28;97220;-76
2021/11/27 06:24:37;;;;;;;32.10;20.37;;;;;;;3.04;71.82;98033.44;4935764;28;96397;-76
2021/11/27 06:27:03;;;;;;;32.73;18.07;;;;;;;2.94;71.58;98038.16;4935628;28;96764;-76
2021/11/27 06:29:28;;;;;;;31.80;18.23;;;;;;;2.94;72.04;98031.22;4935641;28;100239;-77
2021/11/27 06:31:54;;;;;;;31.43;18.47;;;;;;;3.01;71.28;98030.97;4937131;28;97155;-76
2021/11/27 06:34:19;;;;;;;28.10;17.80;;;;;;;3.09;71.39;98037.56;4935874;28;96650;-77
2021/11/27 06:36:45;;;;;;;31.00;19.57;;;;;;;3.02;70.85;98043.88;4936270;28;96770;-77
2021/11/27 06:39:11;;;;;;;30.53;18.20;;;;;;;2.99;71.00;98045.75;4935584;28;97739;-76
2021/11/27 06:41:36;;;;;;;30.10;17.70;;;;;;;3.08;70.35;98041.03;4935908;28;97705;-76
2021/11/27 06:44:28;;;;;;;34.13;18.07;;;;;;;2.98;71.06;98044.06;4947478;28;96758;-76
2021/11/27 06:46:54;;;;;;;31.50;17.47;;;;;;;2.93;70.81;98054.59;4952095;28;96707;-76
2021/11/27 06:49:20;;;;;;;30.63;18.63;;;;;;;3.03;70.34;98055.94;4951233;28;97553;-76
2021/11/27 06:51:45;;;;;;;32.27;17.43;;;;;;;3.03;69.97;98052.50;4935066;28;100441;-76
2021/11/27 06:54:11;;;;;;;29.57;17.90;;;;;;;3.03;70.20;98052.50;4951781;28;96809;-76
2021/11/27 06:56:37;;;;;;;30.27;17.43;;;;;;;2.99;70.18;98050.94;4919459;28;96719;-76
2021/11/27 06:59:02;;;;;;;30.63;18.53;;;;;;;3.05;69.43;98061.06;4935107;28;97398;-76
2021/11/27 07:01:34;;;;;;;30.08;17.55;;;;;;;3.04;69.21;98067.16;4932192;28;97034;-76
2021/11/27 07:04:19;;;;;;;30.10;16.97;;;;;;;3.07;69.59;98067.88;4936007;28;96626;-76
2021/11/27 07:07:23;;;;;;;29.40;17.63;;;;;;;3.12;69.04;98076.31;4873891;28;96519;-76
2021/11/27 07:10:08;;;;;;;29.60;16.30;;;;;;;3.19;68.86;98084.69;4868361;28;100572;-76
2021/11/27 07:12:37;;;;;;;29.87;16.80;;;;;;;3.21;69.01;98082.88;4880615;28;99473;-76
2021/11/27 07:15:04;;;;;;;30.47;18.80;;;;;;;3.36;68.42;98081.41;4918332;28;96653;-76
2021/11/27 07:17:33;;;;;;;34.17;20.23;;;;;;;3.39;67.82;98097.69;4935207;28;96830;-76
2021/11/27 07:20:00;;;;;;;29.57;17.10;;;;;;;3.36;68.04;98103.00;4950033;28;100199;-76
2021/11/27 07:22:26;;;;;;;29.20;17.50;;;;;;;3.51;67.65;98106.72;4950970;28;97208;-76
2021/11/27 07:24:52;;;;;;;29.87;17.40;;;;;;;3.70;67.77;98106.84;4935005;28;96489;-76
2021/11/27 07:27:23;;;;;;;29.03;16.50;;;;;;;3.82;66.94;98108.06;4919403;28;96479;-76
2021/11/27 07:29:48;;;;;;;32.17;17.67;;;;;;;4.05;66.45;98104.50;4934517;28;97315;-75
2021/11/27 07:32:15;;;;;;;28.13;17.20;;;;;;;4.29;65.94;98105.19;4936062;28;97703;-76
2021/11/27 07:34:40;;;;;;;30.23;16.70;;;;;;;4.69;64.66;98116.44;4950755;28;96586;-76
2021/11/27 07:37:06;;;;;;;30.87;18.03;;;;;;;5.24;63.53;98113.03;4935059;28;96769;-76
2021/11/27 07:39:32;;;;;;;28.37;17.43;;;;;;;5.76;62.08;98105.28;4933579;28;97867;-76
2021/11/27 07:41:57;;;;;;;33.10;18.57;;;;;;;6.18;61.12;98117.94;4950690;28;99937;-76
2021/11/27 07:44:47;;;;;;;28.20;17.70;;;;;;;6.58;60.08;98102.88;4947374;28;96466;-76
2021/11/27 07:47:48;;;;;;;33.87;18.20;;;;;;;6.96;58.73;98119.06;4875747;28;96757;-75
2021/11/27 07:50:52;;;;;;;30.37;18.67;;;;;;;7.31;57.89;98108.44;4913696;28;97951;-76
2021/11/27 07:53:25;;;;;;;30.67;16.80;;;;;;;7.67;57.07;98105.50;4897718;28;99888;-76
2021/11/27 07:55:51;;;;;;;30.77;17.40;;;;;;;7.92;55.82;98110.19;4914605;28;96669;-76
2021/11/27 07:58:17;;;;;;;30.20;18.38;;;;;;;8.08;56.06;98104.88;4934694;28;96756;-75
2021/11/27 08:00:42;;;;;;;27.45;17.38;;;;;;;8.42;55.10;98108.13;4933839;28;97687;-76
2021/11/27 08:03:08;;;;;;;31.80;19.50;;;;;;;8.60;54.09;98116.63;4934275;28;97719;-76
2021/11/27 08:05:33;;;;;;;31.58;19.17;;;;;;;8.73;53.38;98125.44;4949921;28;96554;-75
2021/11/27 08:07:59;;;;;;;32.78;19.73;;;;;;;9.06;53.10;98124.28;4934451;28;96759;-75
2021/11/27 08:10:25;;;;;;;31.38;17.63;;;;;;;9.28;52.49;98126.41;4934004;28;97977;-76
2021/11/27 08:12:50;;;;;;;27.80;19.15;;;;;;;9.53;52.15;98120.41;4933789;28;100101;-77
2021/11/27 08:15:16;;;;;;;30.67;18.75;;;;;;;9.69;51.53;98126.34;4950596;28;96424;-76
2021/11/27 08:17:41;;;;;;;32.90;20.05;;;;;;;9.53;51.47;98141.34;4950435;28;96786;-76
2021/11/27 08:20:08;;;;;;;31.60;20.05;;;;;;;9.93;50.74;98142.22;4933610;28;100080;-76
2021/11/27 08:22:34;;;;;;;31.67;19.70;;;;;;;9.94;50.44;98143.91;4950478;28;97471;-76
2021/11/27 08:25:00;;;;;;;32.28;20.88;;;;;;;10.43;49.84;98142.44;4950208;28;96619;-76
2021/11/27 08:27:29;;;;;;;30.55;19.65;;;;;;;10.48;49.11;98144.75;4950182;28;96754;-76
2021/11/27 08:29:55;;;;;;;31.42;20.23;;;;;;;10.63;48.65;98143.72;4932932;28;100783;-76
2021/11/27 08:32:21;;;;;;;33.95;20.13;;;;;;;10.76;48.11;98155.06;4932813;28;97450;-76
2021/11/27 08:34:47;;;;;;;33.97;21.33;;;;;;;10.88;47.53;98148.94;4917430;28;96500;-76
2021/11/27 08:37:13;;;;;;;29.90;19.35;;;;;;;11.26;46.71;98144.56;4933983;28;96796;-76
2021/11/27 08:39:39;;;;;;;35.03;21.20;;;;;;;11.57;46.38;98144.03;4949763;28;98154;-77
2021/11/27 08:42:05;;;;;;;29.48;19.75;;;;;;;11.51;45.91;98149.72;4949824;28;97118;-77
2021/11/27 08:44:30;;;;;;;28.50;19.60;;;;;;;12.04;45.46;98145.94;4934919;28;96540;-77
2021/11/27 08:46:56;;;;;;;29.05;19.35;;;;;;;12.33;44.67;98138.50;4934108;28;96756;-77
2021/11/27 08:49:22;;;;;;;26.67;18.50;;;;;;;12.33;43.28;98141.97;4917230;28;97618;-77
2021/11/27 08:51:48;;;;;;;28.70;18.70;;;;;;;12.65;42.67;98131.63;4933108;28;97192;-77
2021/11/27 08:54:14;;;;;;;27.63;17.88;;;;;;;13.08;42.54;98133.53;4900707;28;96588;-77
2021/11/27 08:56:40;;;;;;;26.17;17.50;;;;;;;13.34;41.15;98123.59;4933359;28;96745;-78
2021/11/27 08:59:06;;;;;;;28.13;19.23;;;;;;;13.61;41.29;98129.38;4948835;28;100610;-78
2021/11/27 09:01:33;;;;;;;29.02;19.48;;;;;;;13.90;40.65;98119.09;4932764;28;99872;-77
2021/11/27 09:03:59;;;;;;;26.25;18.23;;;;;;;13.98;39.84;98124.59;4917617;28;96436;-78
2021/11/27 09:06:25;;;;;;;24.25;17.40;;;;;;;14.17;39.59;98116.81;4932891;28;96919;-78
2021/11/27 09:08:51;;;;;;;24.80;16.98;;;;;;;14.32;39.29;98121.78;4933398;28;97546;-78
2021/11/27 09:11:18;;;;;;;26.92;18.55;;;;;;;14.35;39.02;98121.53;4949708;28;97672;-77
2021/11/27 09:13:45;;;;;;;24.13;17.98;;;;;;;14.42;39.40;98128.78;4933538;28;96561;-78
2021/11/27 09:16:11;;;;;;;28.35;19.77;;;;;;;14.63;39.24;98118.25;4917463;28;96564;-76
2021/11/27 09:18:36;;;;;;;25.42;18.58;;;;;;;14.75;38.56;98123.41;4932101;28;97336;-76
2021/11/27 09:21:02;;;;;;;26.23;18.92;;;;;;;14.97;38.73;98120.59;4948924;28;100090;-76
2021/11/27 09:23:28;;;;;;;24.73;18.63;;;;;;;14.81;38.23;98121.13;4933425;28;96504;-76
2021/11/27 09:25:55;;;;;;;23.00;16.98;;;;;;;14.96;37.68;98120.75;4949444;28;96753;-76
2021/11/27 09:28:20;;;;;;;24.98;17.92;;;;;;;15.23;37.32;98120.97;4933109;28;97544;-78
2021/11/27 09:30:46;;;;;;;22.63;17.67;;;;;;;15.13;36.95;98120.13;4932763;28;100205;-77
2021/11/27 09:33:12;;;;;;;26.48;18.23;;;;;;;15.35;36.94;98127.81;4933280;28;96499;-77
2021/11/27 09:35:38;;;;;;;25.00;18.77;;;;;;;15.35;36.63;98116.41;4933258;28;96788;-76
2021/11/27 09:38:03;;;;;;;27.45;20.15;;;;;;;15.29;37.43;98117.78;4916589;28;97950;-77
2021/11/27 09:40:37;;;;;;;30.05;19.35;;;;;;;15.32;37.26;98128.09;4932830;28;97185;-76
2021/11/27 09:43:05;;;;;;;27.00;19.02;;;;;;;15.30;37.01;98123.91;4916575;28;96531;-76
2021/11/27 09:45:31;;;;;;;27.15;18.83;;;;;;;15.18;37.08;98125.81;4936278;28;96861;-76
2021/11/27 09:47:57;;;;;;;28.95;19.27;;;;;;;15.08;37.41;98131.09;4952408;28;97548;-76
2021/11/27 09:50:23;;;;;;;26.13;19.65;;;;;;;14.06;37.96;98140.63;4920049;28;97595;-76
2021/11/27 09:52:49;;;;;;;25.35;17.80;;;;;;;13.74;39.18;98144.09;4935603;28;96761;-75
2021/11/27 09:55:17;;;;;;;27.95;19.40;;;;;;;13.60;38.29;98133.84;4936099;28;96843;-76
2021/11/27 09:57:47;;;;;;;28.13;19.33;;;;;;;13.65;38.85;98134.31;4937040;28;97388;-78
2021/11/27 10:00:15;;;;;;;26.70;19.33;;;;;;;13.24;39.15;98125.25;4951846;28;100102;-77
2021/11/27 10:02:42;;;;;;;25.33;18.45;;;;;;;13.42;39.26;98138.78;4952271;28;96638;-77
2021/11/27 10:05:09;;;;;;;27.08;18.08;;;;;;;13.52;39.22;98129.16;4936140;28;96803;-77
2021/11/27 10:07:35;;;;;;;26.50;18.20;;;;;;;13.54;39.17;98129.06;4935011;28;98064;-76
2021/11/27 10:10:02;;;;;;;30.30;20.35;;;;;;;12.98;39.78;98134.38;4951983;28;97541;-76
2021/11/27 10:12:27;;;;;;;24.95;17.85;;;;;;;12.49;41.27;98127.66;4936052;28;96425;-76
2021/11/27 10:14:53;;;;;;;28.70;19.35;;;;;;;12.34;41.97;98124.41;4935730;28;96724;-75
2021/11/27 10:17:20;;;;;;;27.75;19.42;;;;;;;12.33;42.39;98135.84;4936964;28;97294;-75
2021/11/27 10:19:56;;;;;;;28.73;19.70;;;;;;;12.11;42.06;98123.50;4951720;28;97625;-75
2021/11/27 10:22:46;;;;;;;27.88;19.45;;;;;;;11.79;42.65;98124.06;4919607;28;96578;-75
2021/11/27 10:25:38;;;;;;;31.00;20.45;;;;;;;11.13;43.26;98130.63;4912380;28;96875;-76
2021/11/27 10:28:16;;;;;;;29.67;19.25;;;;;;;11.01;44.15;98121.84;4935627;28;98023;-76
2021/11/27 10:30:58;;;;;;;31.85;19.17;;;;;;;10.84;44.49;98123.84;4936311;28;97763;-76
2021/11/27 10:33:24;;;;;;;32.80;21.15;;;;;;;10.59;44.73;98124.72;4950865;28;96691;-76
2021/11/27 10:36:07;;;;;;;30.50;19.20;;;;;;;10.45;45.63;98124.00;4935743;28;96821;-76
2021/11/27 10:38:40;;;;;;;28.05;18.60;;;;;;;10.56;44.94;98122.31;4935290;28;97683;-76
2021/11/27 10:41:07;;;;;;;33.25;19.73;;;;;;;10.30;45.51;98113.59;4934965;28;97160;-76
2021/11/27 10:43:34;;;;;;;26.45;17.65;;;;;;;10.02;46.71;98113.75;4935674;28;96669;-76
2021/11/27 10:46:00;;;;;;;30.33;19.23;;;;;;;10.03;46.50;98120.66;4950958;28;96803;-74
2021/11/27 10:48:26;;;;;;;27.15;17.73;;;;;;;9.42;47.46;98122.88;4918606;28;100409;-75
2021/11/27 10:50:54;;;;;;;27.65;18.20;;;;;;;8.99;48.81;98123.81;4919315;28;99540;-75
2021/11/27 10:53:22;;;;;;;27.30;18.35;;;;;;;8.94;48.91;98111.97;4919012;28;96598;-75
2021/11/27 10:55:47;;;;;;;25.73;17.05;;;;;;;8.90;49.44;98111.31;4950592;28;96935;-76
2021/11/27 10:58:14;;;;;;;26.63;17.23;;;;;;;8.82;49.11;98121.41;4934393;28;97534;-75
2021/11/27 11:00:43;;;;;;;28.02;17.67;;;;;;;8.66;49.99;98120.66;4934108;28;100299;-75
2021/11/27 11:03:35;;;;;;;26.38;18.20;;;;;;;8.54;50.54;98128.31;4951276;28;96421;-75
2021/11/27 11:06:17;;;;;;;26.73;16.67;;;;;;;8.55;51.20;98126.53;4935084;28;96843;-75
2021/11/27 11:08:42;;;;;;;28.90;19.10;;;;;;;8.37;50.25;98128.44;4934786;28;97273;-76
2021/11/27 11:11:25;;;;;;;27.90;18.23;;;;;;;8.19;51.61;98132.16;4951419;28;96582;-76
2021/11/27 11:13:59;;;;;;;32.83;19.02;;;;;;;8.05;51.75;98136.41;4918729;28;96548;-76
2021/11/27 11:16:29;;;;;;;25.92;15.85;;;;;;;7.86;51.77;98133.22;4902822;28;96966;-76
2021/11/27 11:19:18;;;;;;;28.48;17.33;;;;;;;8.01;51.75;98126.25;4950661;28;97377;-76
2021/11/27 11:22:10;;;;;;;27.88;17.35;;;;;;;8.09;51.81;98122.25;4934506;28;100855;-75
2021/11/27 11:24:37;;;;;;;34.33;16.47;;;;;;;8.11;51.43;98125.59;4950138;28;96653;-76
2021/11/27 11:27:07;;;;;;;31.05;18.65;;;;;;;8.08;51.22;98127.56;4934660;28;96439;-77
2021/11/27 11:29:44;;;;;;;28.70;17.95;;;;;;;7.85;52.30;98121.94;4934541;28;98004;-78